Terminal Aerodrome Forecast
Issued by NWS Paducah, KY

Home | Current Version | Previous Version | Text Only | Print | Product List | Glossary On
Versions: 1 2 3 4 5 6 7 8 9 10 11 12 13 14 15 16 17 18 19
000
FTUS43 KPAH 041729
TAFEVV
TAF
KEVV 041729Z 0418/0518 34011KT 4SM -SN BR OVC015
      TEMPO 0418/0420 2SM -FZRAPL SCT005 OVC009
     FM042000 35012G20KT 3SM -SN BR OVC015
      TEMPO 0420/0424 1SM -SN BKN010
     FM051000 01009KT 5SM BR SCT005 OVC025
     FM051400 35008KT P6SM OVC050=

USA.gov is the U.S. government's official web portal to all federal, state and local government web resources and services.